createdAt,value
2018-01-25T00:00:16.976Z,0.87
2018-01-25T00:01:21.157Z,1.13
2018-01-25T00:02:25.458Z,1.17
2018-01-25T00:03:29.708Z,1.07
2018-01-25T00:04:33.944Z,1.13
2018-01-25T00:05:38.412Z,1.20
2018-01-25T00:06:42.602Z,1.13
2018-01-25T00:07:46.786Z,3.73
2018-01-25T00:08:50.947Z,1.30
2018-01-25T00:09:56.785Z,0.90
2018-01-25T00:11:01.558Z,2.00
2018-01-25T00:12:05.969Z,1.50
2018-01-25T00:13:10.375Z,1.00
2018-01-25T00:14:14.540Z,10.30
2018-01-25T00:15:18.718Z,1.07
2018-01-25T00:16:22.903Z,1.63
2018-01-25T00:17:27.440Z,1.33
2018-01-25T00:18:31.948Z,1.20
2018-01-25T00:19:36.243Z,2.93
2018-01-25T00:20:40.496Z,1.47
2018-01-25T00:21:44.678Z,2.80
2018-01-25T00:22:48.930Z,3.80
2018-01-25T00:23:53.104Z,2.40
2018-01-25T00:24:57.488Z,2.40
2018-01-25T00:26:02.860Z,6.03
2018-01-25T00:27:08.059Z,1.40
2018-01-25T00:28:13.061Z,1.83
2018-01-25T00:29:17.339Z,3.93
2018-01-25T00:30:21.527Z,1.00
2018-01-25T00:31:25.883Z,1.80
2018-01-25T00:32:31.662Z,2.40
2018-01-25T00:33:36.642Z,2.20
2018-01-25T00:34:40.876Z,2.07
2018-01-25T00:35:45.108Z,2.67
2018-01-25T00:36:49.305Z,1.70
2018-01-25T00:37:53.476Z,10.83
2018-01-25T00:38:58.066Z,2.83
2018-01-25T00:40:02.870Z,1.57
2018-01-25T00:41:08.404Z,3.10
2018-01-25T00:42:12.584Z,3.33
2018-01-25T00:43:16.753Z,2.93
2018-01-25T00:44:22.023Z,2.00
2018-01-25T00:45:26.309Z,2.57
2018-01-25T00:46:30.669Z,4.97
2018-01-25T00:47:35.389Z,2.20
2018-01-25T00:48:39.605Z,5.80
2018-01-25T00:49:43.816Z,2.40
2018-01-25T00:50:48.747Z,2.10
2018-01-25T00:51:52.939Z,2.60
2018-01-25T00:52:57.219Z,2.13
2018-01-25T00:54:01.819Z,3.70
2018-01-25T00:55:06.890Z,2.57
2018-01-25T00:56:11.918Z,2.43
2018-01-25T00:57:16.086Z,4.00
2018-01-25T00:58:20.270Z,3.13
2018-01-25T00:59:24.447Z,2.90
2018-01-25T01:00:29.045Z,2.47
2018-01-25T01:01:33.589Z,2.93
2018-01-25T01:02:37.975Z,2.50
2018-01-25T01:03:42.957Z,2.47
2018-01-25T01:04:47.123Z,3.17
2018-01-25T01:05:52.066Z,3.30
2018-01-25T01:06:57.438Z,2.27
2018-01-25T01:08:02.137Z,2.20
2018-01-25T01:09:06.545Z,2.77
2018-01-25T01:10:10.760Z,2.00
2018-01-25T01:11:15.907Z,2.33
2018-01-25T01:12:20.115Z,4.60
2018-01-25T01:13:25.332Z,2.07
2018-01-25T01:14:29.781Z,2.10
2018-01-25T01:15:34.078Z,2.50
2018-01-25T01:16:38.573Z,2.63
2018-01-25T01:17:42.772Z,2.00
2018-01-25T01:18:46.981Z,4.13
2018-01-25T01:19:51.956Z,2.30
2018-01-25T01:20:56.230Z,1.97
2018-01-25T01:22:01.746Z,2.17
2018-01-25T01:23:06.350Z,4.63
2018-01-25T01:24:11.351Z,2.80
2018-01-25T01:25:15.519Z,5.40
2018-01-25T01:26:20.533Z,2.17
2018-01-25T01:27:25.486Z,5.50
2018-01-25T01:28:29.884Z,2.93
2018-01-25T01:29:34.193Z,2.30
2018-01-25T01:30:39.179Z,2.23
2018-01-25T01:31:43.415Z,2.00
2018-01-25T01:32:47.635Z,3.80
2018-01-25T01:33:52.104Z,2.90
2018-01-25T01:34:56.372Z,2.30
2018-01-25T01:36:01.583Z,2.20
2018-01-25T01:37:05.965Z,1.93
2018-01-25T01:38:10.471Z,3.37
2018-01-25T01:39:14.636Z,3.07
2018-01-25T01:40:18.892Z,6.60
2018-01-25T01:41:23.056Z,3.80
2018-01-25T01:42:27.555Z,6.63
2018-01-25T01:43:31.993Z,4.80
2018-01-25T01:44:36.748Z,3.10
2018-01-25T01:45:40.972Z,4.50
2018-01-25T01:46:45.126Z,2.53
2018-01-25T01:47:50.269Z,5.00
2018-01-25T01:48:54.476Z,5.93
2018-01-25T01:49:59.078Z,2.70
2018-01-25T01:51:03.294Z,4.30
2018-01-25T01:52:08.239Z,10.90
2018-01-25T01:53:12.503Z,9.40
2018-01-25T01:54:16.665Z,5.20
2018-01-25T01:55:20.883Z,6.70
2018-01-25T01:56:26.335Z,3.60
2018-01-25T01:57:30.722Z,6.37
2018-01-25T01:58:35.752Z,5.93
2018-01-25T01:59:39.955Z,5.77
2018-01-25T02:00:44.149Z,4.77
2018-01-25T02:01:48.313Z,4.37
2018-01-25T02:02:53.243Z,7.53
2018-01-25T02:03:58.472Z,6.87
2018-01-25T02:05:02.875Z,5.60
2018-01-25T02:06:07.206Z,4.30
2018-01-25T02:07:11.411Z,7.73
2018-01-25T02:08:16.340Z,6.00
2018-01-25T02:09:21.343Z,5.70
2018-01-25T02:10:25.599Z,6.17
2018-01-25T02:11:29.944Z,10.93
2018-01-25T02:12:34.431Z,8.90
2018-01-25T02:13:38.665Z,5.93
2018-01-25T02:14:42.856Z,6.63
2018-01-25T02:15:47.129Z,6.07
2018-01-25T02:16:52.091Z,8.53
2018-01-25T02:17:56.882Z,7.60
2018-01-25T02:19:02.019Z,6.73
2018-01-25T02:20:07.029Z,8.73
2018-01-25T02:21:11.320Z,7.03
2018-01-25T02:22:15.484Z,7.03
2018-01-25T02:23:20.446Z,6.83
2018-01-25T02:24:24.635Z,7.10
2018-01-25T02:25:29.562Z,10.40
2018-01-25T02:26:33.953Z,5.13
2018-01-25T02:27:38.388Z,15.10
2018-01-25T02:28:42.579Z,6.87
2018-01-25T02:29:47.556Z,7.87
2018-01-25T02:30:51.791Z,9.47
2018-01-25T02:31:56.094Z,6.10
2018-01-25T02:33:01.367Z,6.93
2018-01-25T02:34:05.646Z,9.60
2018-01-25T02:35:09.831Z,7.03
2018-01-25T02:36:14.020Z,9.40
2018-01-25T02:37:18.202Z,9.20
2018-01-25T02:38:22.761Z,8.00
2018-01-25T02:39:27.744Z,10.67
2018-01-25T02:40:32.952Z,7.03
2018-01-25T02:41:37.529Z,8.23
2018-01-25T02:42:41.766Z,8.40
2018-01-25T02:43:46.000Z,7.60
2018-01-25T02:44:50.186Z,9.43
2018-01-25T02:45:54.399Z,10.03
2018-01-25T02:46:59.481Z,5.27
2018-01-25T02:48:03.803Z,13.07
2018-01-25T02:49:08.351Z,7.10
2018-01-25T02:50:12.548Z,9.93
2018-01-25T02:51:16.744Z,11.03
2018-01-25T02:52:21.708Z,8.13
2018-01-25T02:53:25.946Z,7.60
2018-01-25T02:54:30.751Z,9.30
2018-01-25T02:55:35.059Z,8.50
2018-01-25T02:56:39.498Z,7.83
2018-01-25T02:57:43.673Z,7.90
2018-01-25T02:58:47.831Z,7.93
2018-01-25T02:59:52.070Z,6.33
2018-01-25T03:00:57.164Z,7.63
2018-01-25T03:02:01.491Z,10.50
2018-01-25T03:03:06.666Z,9.20
2018-01-25T03:04:10.852Z,5.77
2018-01-25T03:05:16.637Z,7.50
2018-01-25T03:06:20.831Z,7.93
2018-01-25T03:07:26.108Z,8.43
2018-01-25T03:08:31.734Z,8.87
2018-01-25T03:09:36.193Z,7.90
2018-01-25T03:10:41.212Z,9.10
2018-01-25T03:11:45.430Z,14.03
2018-01-25T03:12:49.639Z,9.37
2018-01-25T03:13:53.810Z,6.27
2018-01-25T03:14:58.127Z,7.07
2018-01-25T03:16:02.443Z,6.00
2018-01-25T03:17:06.732Z,11.07
2018-01-25T03:18:11.024Z,10.40
2018-01-25T03:19:15.959Z,9.00
2018-01-25T03:20:20.150Z,9.13
2018-01-25T03:21:25.107Z,6.80
2018-01-25T03:22:29.755Z,5.87
2018-01-25T03:23:34.044Z,6.63
2018-01-25T03:24:38.280Z,6.10
2018-01-25T03:25:42.503Z,7.80
2018-01-25T03:26:47.598Z,7.00
2018-01-25T03:27:51.793Z,9.97
2018-01-25T03:28:57.534Z,11.13
2018-01-25T03:30:02.119Z,8.97
2018-01-25T03:31:06.468Z,11.97
2018-01-25T03:32:11.471Z,8.40
2018-01-25T03:33:15.655Z,8.33
2018-01-25T03:34:19.820Z,8.03
2018-01-25T03:35:24.777Z,13.43
2018-01-25T03:36:29.702Z,7.00
2018-01-25T03:37:34.380Z,5.10
2018-01-25T03:38:39.367Z,9.60
2018-01-25T03:39:43.530Z,7.90
2018-01-25T03:40:49.424Z,6.27
2018-01-25T03:41:53.634Z,4.60
2018-01-25T03:42:57.943Z,9.23
2018-01-25T03:44:02.199Z,9.03
2018-01-25T03:45:07.275Z,20.93
2018-01-25T03:46:11.496Z,7.30
2018-01-25T03:47:15.703Z,8.87
2018-01-25T03:48:19.891Z,6.77
2018-01-25T03:49:24.849Z,7.67
2018-01-25T03:50:29.212Z,10.63
2018-01-25T03:51:34.327Z,6.33
2018-01-25T03:52:38.984Z,8.13
2018-01-25T03:53:43.924Z,10.80
2018-01-25T03:54:48.083Z,9.30
2018-01-25T03:55:52.271Z,9.27
2018-01-25T03:56:56.901Z,7.47
2018-01-25T03:58:01.656Z,8.63
2018-01-25T03:59:06.900Z,7.77
2018-01-25T04:00:11.180Z,10.17
2018-01-25T04:01:15.342Z,9.47
2018-01-25T04:02:19.511Z,11.70
2018-01-25T04:03:25.235Z,9.63
2018-01-25T04:04:29.686Z,11.00
2018-01-25T04:05:34.052Z,11.57
2018-01-25T04:06:38.294Z,9.90
2018-01-25T04:07:42.533Z,9.40
2018-01-25T04:08:47.496Z,14.63
2018-01-25T04:09:51.668Z,16.53
2018-01-25T04:10:56.700Z,9.90
2018-01-25T04:12:01.810Z,11.70
2018-01-25T04:13:06.096Z,14.33
2018-01-25T04:14:10.303Z,7.60
2018-01-25T04:15:14.523Z,9.83
2018-01-25T04:16:18.773Z,14.00
2018-01-25T04:17:23.736Z,8.10
2018-01-25T04:18:28.059Z,12.60
2018-01-25T04:19:32.355Z,20.90
2018-01-25T04:20:36.614Z,18.10
2018-01-25T04:21:42.341Z,11.73
2018-01-25T04:22:46.543Z,11.17
2018-01-25T04:23:51.148Z,11.43
2018-01-25T04:24:55.338Z,18.60
2018-01-25T04:26:00.344Z,14.00
2018-01-25T04:27:04.621Z,19.37
2018-01-25T04:28:09.743Z,11.83
2018-01-25T04:29:13.981Z,14.63
2018-01-25T04:30:18.175Z,13.80
2018-01-25T04:31:22.383Z,14.80
2018-01-25T04:32:26.664Z,20.10
2018-01-25T04:33:31.366Z,15.83
2018-01-25T04:34:36.618Z,16.30
2018-01-25T04:35:42.133Z,17.73
2018-01-25T04:36:47.071Z,17.93
2018-01-25T04:37:52.031Z,19.53
2018-01-25T04:38:56.582Z,17.60
2018-01-25T04:40:01.759Z,17.20
2018-01-25T04:41:06.720Z,21.23
2018-01-25T04:42:10.960Z,16.63
2018-01-25T04:43:15.208Z,21.87
2018-01-25T04:44:20.175Z,16.20
2018-01-25T04:45:24.400Z,18.87
2018-01-25T04:46:29.496Z,22.80
2018-01-25T04:47:33.751Z,21.00
2018-01-25T04:48:38.088Z,20.87
2018-01-25T04:49:43.075Z,25.43
2018-01-25T04:50:47.287Z,27.57
2018-01-25T04:51:51.551Z,24.63
2018-01-25T04:52:57.214Z,21.60
2018-01-25T04:54:01.709Z,20.93
2018-01-25T04:55:06.743Z,26.93
2018-01-25T04:56:11.715Z,22.20
2018-01-25T04:57:15.962Z,24.73
2018-01-25T04:58:20.144Z,25.47
2018-01-25T04:59:24.324Z,28.17
2018-01-25T05:00:28.930Z,25.63
2018-01-25T05:01:33.233Z,25.53
2018-01-25T05:02:38.474Z,29.60
2018-01-25T05:03:42.735Z,26.70
2018-01-25T05:04:46.911Z,30.73
2018-01-25T05:05:51.088Z,32.37
2018-01-25T05:06:57.721Z,31.13
2018-01-25T05:08:02.388Z,32.20
2018-01-25T05:09:06.979Z,29.40
2018-01-25T05:10:11.429Z,27.63
2018-01-25T05:11:16.405Z,31.50
2018-01-25T05:12:20.628Z,25.90
2018-01-25T05:13:24.842Z,29.57
2018-01-25T05:14:29.743Z,29.70
2018-01-25T05:15:34.114Z,30.13
2018-01-25T05:16:38.692Z,31.33
2018-01-25T05:17:57.104Z,36.57
2018-01-25T05:19:02.327Z,27.70
2018-01-25T05:20:06.842Z,37.30
2018-01-25T05:21:11.819Z,27.43
2018-01-25T05:22:16.092Z,24.77
2018-01-25T05:23:20.296Z,39.23
2018-01-25T05:24:25.259Z,28.97
2018-01-25T05:25:31.269Z,31.20
2018-01-25T05:26:36.826Z,33.90
2018-01-25T05:27:41.466Z,28.20
2018-01-25T05:28:45.642Z,26.80
2018-01-25T05:29:50.603Z,31.43
2018-01-25T05:30:54.828Z,36.10
2018-01-25T05:31:59.683Z,28.23
2018-01-25T05:33:04.221Z,26.30
2018-01-25T05:34:08.555Z,27.30
2018-01-25T05:35:12.787Z,31.77
2018-01-25T05:36:16.985Z,26.90
2018-01-25T05:37:21.174Z,35.50
2018-01-25T05:38:27.182Z,31.20
2018-01-25T05:39:32.567Z,33.60
2018-01-25T05:40:37.274Z,26.00
2018-01-25T05:41:41.505Z,32.23
2018-01-25T05:42:46.494Z,29.70
2018-01-25T05:43:50.704Z,25.83
2018-01-25T05:44:54.905Z,27.70
2018-01-25T05:46:00.914Z,25.37
2018-01-25T05:47:05.666Z,20.70
2018-01-25T05:48:09.907Z,27.17
2018-01-25T05:49:14.198Z,26.33
2018-01-25T05:50:18.390Z,29.63
2018-01-25T05:51:22.608Z,23.17
2018-01-25T05:52:27.291Z,24.60
2018-01-25T05:53:31.712Z,24.83
2018-01-25T05:54:36.165Z,29.40
2018-01-25T05:55:40.403Z,22.83
2018-01-25T05:56:44.603Z,22.40
2018-01-25T05:57:48.808Z,22.20
2018-01-25T05:58:53.025Z,28.23
2018-01-25T05:59:58.292Z,25.47
2018-01-25T06:01:02.705Z,19.97
2018-01-25T06:02:08.151Z,23.03
2018-01-25T06:03:13.113Z,23.13
2018-01-25T06:04:17.355Z,24.20
2018-01-25T06:05:21.592Z,17.60
2018-01-25T06:06:26.653Z,28.13
2018-01-25T06:07:31.136Z,17.67
2018-01-25T06:08:35.439Z,17.77
2018-01-25T06:09:39.744Z,22.70
2018-01-25T06:10:43.943Z,18.40
2018-01-25T06:11:48.140Z,18.50
2018-01-25T06:12:52.332Z,16.20
2018-01-25T06:13:56.690Z,16.80
2018-01-25T06:15:01.368Z,23.37
2018-01-25T06:16:06.258Z,15.53
2018-01-25T06:17:10.748Z,19.47
2018-01-25T06:18:14.933Z,14.83
2018-01-25T06:19:19.157Z,13.27
2018-01-25T06:20:23.347Z,16.70
2018-01-25T06:21:27.651Z,12.40
2018-01-25T06:22:32.040Z,17.10
2018-01-25T06:23:37.181Z,14.40
2018-01-25T06:24:41.444Z,21.03
2018-01-25T06:25:45.635Z,15.77
2018-01-25T06:26:49.803Z,19.03
2018-01-25T06:27:54.745Z,16.80
2018-01-25T06:29:00.029Z,16.20
2018-01-25T06:30:03.786Z,17.10
2018-01-25T06:31:08.407Z,17.57
2018-01-25T06:32:12.611Z,11.53
2018-01-25T06:33:17.567Z,13.90
2018-01-25T06:34:22.175Z,15.33
2018-01-25T06:35:26.828Z,12.23
2018-01-25T06:36:31.723Z,21.63
2018-01-25T06:37:35.986Z,11.67
2018-01-25T06:38:40.203Z,16.57
2018-01-25T06:39:44.685Z,16.50
2018-01-25T06:40:48.861Z,18.53
2018-01-25T06:41:53.831Z,18.53
2018-01-25T06:42:58.369Z,13.30
2018-01-25T06:44:02.859Z,12.77
2018-01-25T06:45:07.099Z,15.27
2018-01-25T06:46:12.080Z,13.93
2018-01-25T06:47:16.320Z,14.20
2018-01-25T06:48:20.511Z,14.20
2018-01-25T06:49:25.032Z,12.80
2018-01-25T06:50:29.501Z,12.00
2018-01-25T06:51:34.476Z,14.30
2018-01-25T06:52:38.767Z,20.57
2018-01-25T06:53:42.912Z,15.70
2018-01-25T06:54:47.117Z,14.00
2018-01-25T06:55:51.311Z,15.87
2018-01-25T06:56:55.527Z,17.33
2018-01-25T06:58:00.443Z,9.80
2018-01-25T06:59:04.717Z,22.77
2018-01-25T07:00:09.045Z,14.40
2018-01-25T07:01:13.992Z,15.10
2018-01-25T07:02:18.180Z,21.33
2018-01-25T07:03:23.176Z,21.07
2018-01-25T07:04:27.459Z,11.53
2018-01-25T07:05:31.718Z,18.00
2018-01-25T07:06:36.056Z,18.93
2018-01-25T07:07:40.310Z,21.60
2018-01-25T07:08:44.495Z,14.20
2018-01-25T07:09:48.700Z,21.43
2018-01-25T07:10:52.919Z,13.53
2018-01-25T07:11:58.675Z,24.53
2018-01-25T07:13:03.382Z,16.00
2018-01-25T07:14:07.673Z,11.50
2018-01-25T07:15:11.901Z,16.53
2018-01-25T07:16:16.884Z,20.10
2018-01-25T07:17:21.088Z,23.33
2018-01-25T07:18:25.364Z,15.40
2018-01-25T07:19:30.284Z,19.07
2018-01-25T07:20:34.557Z,16.53
2018-01-25T07:21:39.599Z,19.30
2018-01-25T07:22:44.564Z,14.93
2018-01-25T07:23:48.800Z,10.30
2018-01-25T07:24:52.990Z,16.13
2018-01-25T07:25:57.537Z,15.87
2018-01-25T07:27:01.983Z,15.53
2018-01-25T07:28:06.491Z,12.10
2018-01-25T07:29:12.243Z,10.50
2018-01-25T07:30:16.419Z,16.13
2018-01-25T07:31:20.633Z,12.17
2018-01-25T07:32:24.916Z,13.30
2018-01-25T07:33:31.173Z,14.03
2018-01-25T07:34:35.578Z,12.80
2018-01-25T07:35:39.780Z,11.87
2018-01-25T07:36:44.773Z,14.97
2018-01-25T07:37:48.987Z,13.23
2018-01-25T07:38:53.191Z,11.93
2018-01-25T07:39:57.666Z,14.27
2018-01-25T07:41:02.532Z,17.40
2018-01-25T07:42:06.776Z,20.20
2018-01-25T07:43:11.719Z,13.07
2018-01-25T07:44:15.921Z,13.77
2018-01-25T07:45:21.262Z,13.47
2018-01-25T07:46:25.664Z,16.63
2018-01-25T07:47:30.165Z,11.13
2018-01-25T07:48:34.379Z,21.67
2018-01-25T07:49:38.551Z,21.70
2018-01-25T07:50:42.758Z,11.13
2018-01-25T07:51:46.942Z,14.93
2018-01-25T07:52:51.106Z,13.97
2018-01-25T07:53:55.469Z,20.70
2018-01-25T07:55:00.386Z,22.80
2018-01-25T07:56:05.369Z,14.00
2018-01-25T07:57:09.591Z,12.03
2018-01-25T07:58:20.365Z,17.73
2018-01-25T07:59:24.573Z,10.20
2018-01-25T08:00:28.941Z,18.90
2018-01-25T08:01:33.343Z,16.73
2018-01-25T08:02:37.747Z,16.67
2018-01-25T08:03:42.726Z,16.60
2018-01-25T08:04:46.901Z,15.97
2018-01-25T08:05:51.065Z,13.90
2018-01-25T08:06:55.297Z,13.67
2018-01-25T08:08:00.548Z,12.97
2018-01-25T08:09:05.670Z,15.93
2018-01-25T08:10:10.131Z,18.70
2018-01-25T08:11:14.494Z,20.50
2018-01-25T08:12:19.536Z,14.40
2018-01-25T08:13:29.313Z,13.50
2018-01-25T08:14:33.607Z,11.77
2018-01-25T08:15:38.061Z,13.90
2018-01-25T08:16:47.716Z,14.33
2018-01-25T08:17:51.943Z,15.00
2018-01-25T08:18:56.953Z,13.40
2018-01-25T08:20:01.690Z,12.77
2018-01-25T08:21:06.856Z,13.37
2018-01-25T08:22:11.055Z,16.10
2018-01-25T08:23:15.324Z,17.30
2018-01-25T08:24:19.697Z,16.23
2018-01-25T08:25:24.691Z,16.17
2018-01-25T08:26:30.135Z,23.10
2018-01-25T08:27:35.216Z,17.23
2018-01-25T08:28:42.384Z,12.40
2018-01-25T08:29:46.583Z,12.83
2018-01-25T08:30:50.781Z,12.67
2018-01-25T08:31:55.903Z,17.43
2018-01-25T08:33:00.829Z,12.37
2018-01-25T08:34:05.893Z,13.80
2018-01-25T08:35:10.247Z,21.40
2018-01-25T08:36:14.634Z,13.50
2018-01-25T08:37:18.667Z,19.13
2018-01-25T08:38:22.923Z,20.27
2018-01-25T08:39:28.177Z,18.80
2018-01-25T08:40:32.492Z,14.57
2018-01-25T08:41:36.727Z,15.83
2018-01-25T08:42:41.001Z,21.20
2018-01-25T08:43:45.174Z,11.50
2018-01-25T08:44:49.364Z,16.00
2018-01-25T08:45:53.923Z,17.27
2018-01-25T08:46:59.585Z,11.23
2018-01-25T08:48:04.591Z,11.83
2018-01-25T08:49:08.875Z,15.97
2018-01-25T08:50:13.068Z,20.17
2018-01-25T08:51:17.641Z,15.80
2018-01-25T08:52:22.671Z,17.87
2018-01-25T08:53:27.814Z,18.10
2018-01-25T08:54:32.123Z,12.30
2018-01-25T08:55:36.366Z,14.57
2018-01-25T08:56:40.588Z,18.30
2018-01-25T08:57:44.772Z,16.13
2018-01-25T08:58:48.991Z,17.03
2018-01-25T08:59:53.235Z,14.47
2018-01-25T09:00:57.741Z,16.63
2018-01-25T09:02:02.211Z,15.67
2018-01-25T09:03:06.804Z,20.43
2018-01-25T09:04:11.827Z,16.83
2018-01-25T09:05:16.021Z,16.90
2018-01-25T09:06:20.191Z,19.13
2018-01-25T09:07:24.499Z,18.43
2018-01-25T09:08:29.568Z,16.53
2018-01-25T09:09:34.619Z,19.20
2018-01-25T09:10:38.929Z,21.00
2018-01-25T09:11:43.274Z,16.90
2018-01-25T09:12:48.277Z,28.90
2018-01-25T09:13:52.476Z,16.00
2018-01-25T09:14:56.794Z,13.43
2018-01-25T09:16:02.421Z,18.90
2018-01-25T09:17:07.124Z,15.70
2018-01-25T09:18:11.414Z,17.77
2018-01-25T09:19:15.632Z,16.23
2018-01-25T09:20:19.832Z,15.33
2018-01-25T09:21:24.843Z,20.47
2018-01-25T09:22:29.749Z,16.97
2018-01-25T09:23:34.935Z,16.03
2018-01-25T09:24:39.332Z,15.10
2018-01-25T09:25:44.289Z,14.50
2018-01-25T09:26:48.528Z,17.20
2018-01-25T09:27:52.763Z,24.50
2018-01-25T09:28:57.968Z,27.00
2018-01-25T09:30:03.358Z,21.93
2018-01-25T09:31:08.144Z,18.97
2018-01-25T09:32:12.374Z,17.60
2018-01-25T09:33:16.576Z,20.10
2018-01-25T09:34:20.749Z,17.90
2018-01-25T09:35:24.936Z,15.07
2018-01-25T09:36:29.317Z,20.03
2018-01-25T09:37:34.478Z,19.53
2018-01-25T09:38:38.785Z,17.23
2018-01-25T09:39:43.743Z,18.60
2018-01-25T09:40:47.950Z,23.30
2018-01-25T09:41:52.180Z,19.53
2018-01-25T09:42:56.634Z,24.50
2018-01-25T09:44:01.545Z,13.43
2018-01-25T09:45:07.407Z,20.43
2018-01-25T09:46:11.653Z,16.50
2018-01-25T09:47:15.864Z,19.13
2018-01-25T09:48:20.084Z,23.57
2018-01-25T09:49:24.323Z,22.60
2018-01-25T09:50:28.799Z,20.73
2018-01-25T09:51:34.139Z,16.10
2018-01-25T09:52:38.416Z,18.93
2018-01-25T09:53:42.623Z,20.90
2018-01-25T09:54:46.971Z,22.47
2018-01-25T09:55:51.148Z,21.07
2018-01-25T09:56:57.295Z,23.63
2018-01-25T09:58:02.404Z,32.93
2018-01-25T09:59:07.068Z,24.87
2018-01-25T10:00:11.996Z,22.93
2018-01-25T10:01:17.020Z,21.77
2018-01-25T10:02:21.256Z,20.23
2018-01-25T10:03:26.705Z,24.00
2018-01-25T10:04:31.325Z,18.70
2018-01-25T10:05:35.678Z,27.07
2018-01-25T10:06:39.970Z,22.40
2018-01-25T10:07:44.157Z,21.50
2018-01-25T10:08:48.379Z,20.30
2018-01-25T10:09:52.592Z,30.37
2018-01-25T10:10:57.266Z,20.73
2018-01-25T10:12:01.959Z,33.93
2018-01-25T10:13:07.148Z,19.10
2018-01-25T10:14:11.431Z,20.40
2018-01-25T10:15:15.690Z,29.40
2018-01-25T10:16:19.994Z,24.13
2018-01-25T10:17:24.277Z,25.93
2018-01-25T10:18:28.830Z,38.43
2018-01-25T10:19:33.187Z,22.03
2018-01-25T10:20:37.637Z,23.93
2018-01-25T10:21:42.588Z,31.20
2018-01-25T10:22:46.875Z,21.77
2018-01-25T10:23:52.022Z,18.73
2018-01-25T10:24:57.820Z,25.70
2018-01-25T10:26:02.092Z,26.60
2018-01-25T10:27:06.536Z,23.63
2018-01-25T10:28:10.905Z,21.93
2018-01-25T10:29:15.890Z,26.73
2018-01-25T10:30:20.082Z,26.33
2018-01-25T10:31:24.280Z,20.17
2018-01-25T10:32:28.924Z,27.27
2018-01-25T10:33:33.520Z,21.77
2018-01-25T10:34:38.234Z,21.50
2018-01-25T10:35:42.407Z,21.97
2018-01-25T10:36:46.645Z,20.70
2018-01-25T10:37:51.701Z,30.97
2018-01-25T10:38:55.958Z,21.60
2018-01-25T10:40:00.281Z,22.50
2018-01-25T10:41:05.849Z,26.83
2018-01-25T10:42:10.088Z,23.20
2018-01-25T10:43:14.383Z,22.17
2018-01-25T10:44:18.592Z,19.43
2018-01-25T10:45:22.791Z,28.23
2018-01-25T10:46:29.812Z,23.60
2018-01-25T10:47:34.272Z,20.77
2018-01-25T10:48:38.603Z,19.03
2018-01-25T10:49:42.822Z,24.30
2018-01-25T10:50:47.023Z,22.20
2018-01-25T10:51:51.204Z,37.23
2018-01-25T10:52:55.429Z,22.50
2018-01-25T10:54:00.043Z,37.17
2018-01-25T10:55:04.407Z,27.63
2018-01-25T10:56:08.634Z,26.10
2018-01-25T10:57:12.847Z,27.37
2018-01-25T10:58:17.243Z,23.17
2018-01-25T10:59:21.442Z,30.40
2018-01-25T11:00:25.831Z,29.27
2018-01-25T11:01:35.854Z,21.80
2018-01-25T11:02:40.103Z,30.13
2018-01-25T11:03:44.399Z,25.83
2018-01-25T11:04:49.384Z,30.00
2018-01-25T11:05:53.583Z,25.13
2018-01-25T11:06:58.298Z,24.00
2018-01-25T11:08:03.643Z,21.50
2018-01-25T11:09:08.038Z,26.83
2018-01-25T11:10:12.405Z,21.43
2018-01-25T11:11:16.604Z,22.50
2018-01-25T11:12:20.786Z,30.87
2018-01-25T11:13:24.999Z,24.70
2018-01-25T11:14:29.928Z,24.57
2018-01-25T11:15:34.273Z,27.20
2018-01-25T11:16:39.315Z,24.17
2018-01-25T11:17:44.301Z,24.23
2018-01-25T11:18:48.495Z,19.10
2018-01-25T11:19:52.729Z,28.00
2018-01-25T11:20:57.333Z,23.27
2018-01-25T11:22:03.256Z,24.47
2018-01-25T11:23:07.970Z,30.23
2018-01-25T11:24:12.220Z,29.30
2018-01-25T11:25:16.485Z,24.40
2018-01-25T11:26:20.684Z,25.77
2018-01-25T11:27:24.895Z,20.70
2018-01-25T11:28:31.215Z,22.53
2018-01-25T11:29:35.509Z,27.40
2018-01-25T11:30:39.776Z,24.30
2018-01-25T11:31:44.039Z,16.23
2018-01-25T11:32:48.247Z,23.93
2018-01-25T11:33:52.428Z,21.80
2018-01-25T11:34:57.763Z,28.10
2018-01-25T11:36:02.471Z,21.33
2018-01-25T11:37:07.553Z,25.93
2018-01-25T11:38:11.751Z,19.03
2018-01-25T11:39:16.063Z,22.30
2018-01-25T11:40:20.287Z,30.63
2018-01-25T11:41:24.514Z,19.77
2018-01-25T11:42:29.091Z,23.63
2018-01-25T11:43:34.635Z,17.13
2018-01-25T11:44:38.900Z,28.43
2018-01-25T11:45:43.107Z,26.67
2018-01-25T11:46:47.359Z,25.43
2018-01-25T11:47:52.311Z,31.23
2018-01-25T11:48:56.690Z,29.80
2018-01-25T11:50:01.796Z,18.63
2018-01-25T11:51:06.209Z,24.67
2018-01-25T11:52:10.540Z,19.60
2018-01-25T11:53:14.756Z,22.03
2018-01-25T11:54:20.165Z,18.00
2018-01-25T11:55:24.371Z,17.53
2018-01-25T11:56:29.119Z,24.77
2018-01-25T11:57:33.888Z,19.50
2018-01-25T11:58:38.524Z,29.60
2018-01-25T11:59:42.731Z,26.37
2018-01-25T12:00:46.970Z,22.57
2018-01-25T12:01:51.556Z,22.30
2018-01-25T12:02:55.819Z,17.60
2018-01-25T12:04:01.412Z,26.43
2018-01-25T12:05:05.948Z,22.27
2018-01-25T12:06:10.184Z,26.07
2018-01-25T12:07:14.368Z,24.90
2018-01-25T12:08:18.620Z,18.67
2018-01-25T12:09:22.816Z,32.87
2018-01-25T12:10:27.827Z,21.07
2018-01-25T12:11:32.169Z,17.97
2018-01-25T12:12:36.514Z,23.00
2018-01-25T12:13:40.783Z,26.13
2018-01-25T12:14:45.076Z,28.10
2018-01-25T12:15:49.247Z,30.47
2018-01-25T12:16:54.226Z,18.40
2018-01-25T12:17:59.772Z,20.30
2018-01-25T12:19:04.173Z,26.63
2018-01-25T12:20:08.539Z,28.97
2018-01-25T12:21:13.598Z,30.40
2018-01-25T12:22:17.794Z,17.93
2018-01-25T12:23:22.783Z,22.57
2018-01-25T12:24:27.878Z,31.33
2018-01-25T12:25:33.142Z,28.53
2018-01-25T12:26:38.322Z,33.17
2018-01-25T12:27:43.282Z,18.83
2018-01-25T12:28:47.557Z,19.37
2018-01-25T12:29:52.500Z,23.03
2018-01-25T12:30:57.751Z,20.33
2018-01-25T12:32:02.139Z,23.63
2018-01-25T12:33:07.320Z,21.30
2018-01-25T12:34:13.054Z,18.63
2018-01-25T12:35:17.219Z,19.93
2018-01-25T12:36:21.404Z,20.90
2018-01-25T12:37:25.658Z,24.60
2018-01-25T12:38:30.351Z,24.50
2018-01-25T12:39:34.672Z,15.90
2018-01-25T12:40:39.732Z,26.43
2018-01-25T12:41:43.954Z,23.07
2018-01-25T12:42:48.132Z,27.10
2018-01-25T12:43:53.115Z,19.70
2018-01-25T12:44:57.369Z,25.07
2018-01-25T12:46:02.345Z,20.53
2018-01-25T12:47:07.603Z,30.97
2018-01-25T12:48:11.804Z,25.50
2018-01-25T12:49:16.000Z,21.03
2018-01-25T12:50:20.181Z,31.73
2018-01-25T12:51:25.134Z,19.70
2018-01-25T12:52:30.612Z,18.30
2018-01-25T12:53:35.615Z,32.53
2018-01-25T12:54:39.948Z,19.10
2018-01-25T12:55:44.147Z,26.33
2018-01-25T12:56:48.368Z,19.40
2018-01-25T12:57:52.595Z,21.77
2018-01-25T12:58:58.962Z,16.60
2018-01-25T13:00:03.327Z,18.30
2018-01-25T13:01:07.675Z,15.73
2018-01-25T13:02:11.895Z,21.73
2018-01-25T13:03:16.073Z,21.70
2018-01-25T13:04:20.324Z,18.77
2018-01-25T13:05:24.668Z,20.07
2018-01-25T13:06:29.189Z,33.37
2018-01-25T13:07:33.909Z,21.60
2018-01-25T13:08:38.598Z,17.53
2018-01-25T13:09:43.892Z,25.53
2018-01-25T13:10:48.867Z,21.53
2018-01-25T13:11:53.092Z,17.80
2018-01-25T13:12:58.275Z,21.40
2018-01-25T13:14:02.856Z,15.60
2018-01-25T13:15:07.200Z,26.93
2018-01-25T13:16:11.510Z,19.23
2018-01-25T13:17:15.697Z,23.07
2018-01-25T13:18:19.907Z,27.53
2018-01-25T13:19:24.083Z,24.53
2018-01-25T13:20:30.160Z,20.50
2018-01-25T13:21:35.788Z,23.23
2018-01-25T13:22:40.093Z,22.77
2018-01-25T13:23:45.819Z,21.30
2018-01-25T13:24:50.858Z,18.90
2018-01-25T13:25:55.102Z,15.57
2018-01-25T13:26:59.753Z,13.50
2018-01-25T13:28:04.408Z,18.83
2018-01-25T13:29:08.683Z,17.00
2018-01-25T13:30:12.880Z,17.53
2018-01-25T13:31:17.080Z,21.37
2018-01-25T13:32:22.079Z,25.93
2018-01-25T13:33:32.286Z,16.87
2018-01-25T13:34:36.648Z,25.03
2018-01-25T13:35:41.359Z,24.37
2018-01-25T13:36:45.583Z,25.50
2018-01-25T13:37:49.991Z,19.90
2018-01-25T13:38:54.203Z,24.00
2018-01-25T13:39:59.109Z,22.83
2018-01-25T13:41:03.762Z,23.37
2018-01-25T13:42:08.753Z,18.70
2018-01-25T13:43:12.979Z,22.80
2018-01-25T13:44:17.236Z,17.90
2018-01-25T13:45:22.562Z,24.50
2018-01-25T13:46:27.747Z,17.23
2018-01-25T13:47:32.177Z,20.20
2018-01-25T13:48:36.487Z,24.97
2018-01-25T13:49:40.689Z,14.87
2018-01-25T13:50:44.912Z,17.43
2018-01-25T13:51:49.136Z,18.40
2018-01-25T13:52:53.371Z,21.00
2018-01-25T13:53:58.846Z,16.97
2018-01-25T13:55:03.104Z,16.23
2018-01-25T13:56:08.684Z,24.20
2018-01-25T13:57:12.875Z,19.80
2018-01-25T13:58:17.891Z,18.83
2018-01-25T13:59:22.071Z,17.13